createdAt,value
2018-10-21T00:01:34.912Z,99.90
2018-10-21T00:04:02.343Z,99.90
2018-10-21T00:06:29.771Z,99.90
2018-10-21T00:08:57.189Z,99.90
2018-10-21T00:11:27.835Z,99.90
2018-10-21T00:13:55.240Z,99.90
2018-10-21T00:16:22.642Z,99.90
2018-10-21T00:18:50.166Z,99.90
2018-10-21T00:21:17.627Z,99.90
2018-10-21T00:23:45.052Z,99.90
2018-10-21T00:26:12.474Z,99.90
2018-10-21T00:28:39.887Z,99.90
2018-10-21T00:31:07.296Z,99.90
2018-10-21T00:33:34.714Z,99.90
2018-10-21T00:36:02.127Z,99.90
2018-10-21T00:38:29.525Z,99.90
2018-10-21T00:40:56.939Z,99.90
2018-10-21T00:43:28.140Z,99.90
2018-10-21T00:45:55.542Z,99.90
2018-10-21T00:48:22.963Z,99.90
2018-10-21T00:50:50.371Z,99.90
2018-10-21T00:53:17.799Z,99.90
2018-10-21T00:55:45.227Z,99.90
2018-10-21T00:58:12.631Z,99.90
2018-10-21T01:00:40.035Z,99.90
2018-10-21T01:03:07.545Z,99.90
2018-10-21T01:05:34.889Z,99.90
2018-10-21T01:08:02.307Z,99.90
2018-10-21T01:10:30.703Z,99.90
2018-10-21T01:12:58.109Z,99.90
2018-10-21T01:15:25.533Z,99.90
2018-10-21T01:17:52.971Z,99.90
2018-10-21T01:20:20.399Z,99.90
2018-10-21T01:22:47.807Z,99.90
2018-10-21T01:25:15.251Z,99.90
2018-10-21T01:27:42.682Z,99.90
2018-10-21T01:30:11.079Z,99.90
2018-10-21T01:32:39.516Z,99.90
2018-10-21T01:35:07.594Z,99.90
2018-10-21T01:37:35.022Z,99.90
2018-10-21T01:40:48.050Z,99.90
2018-10-21T01:43:16.702Z,99.90
2018-10-21T01:45:44.200Z,99.90
2018-10-21T01:48:12.834Z,99.90
2018-10-21T01:50:40.288Z,99.90
2018-10-21T01:53:08.895Z,99.90
2018-10-21T01:55:36.344Z,99.90
2018-10-21T01:58:04.244Z,99.90
2018-10-21T02:00:32.280Z,99.90
2018-10-21T02:03:00.062Z,99.90
2018-10-21T02:05:27.690Z,99.90
2018-10-21T02:07:55.463Z,99.90
2018-10-21T02:10:22.870Z,99.90
2018-10-21T02:12:50.327Z,99.90
2018-10-21T02:15:17.774Z,99.90
2018-10-21T02:17:45.216Z,99.90
2018-10-21T02:20:13.555Z,99.90
2018-10-21T02:22:44.667Z,99.90
2018-10-21T02:25:12.183Z,99.90
2018-10-21T02:27:40.234Z,99.90
2018-10-21T02:30:09.047Z,99.90
2018-10-21T02:32:36.520Z,99.90
2018-10-21T02:35:04.937Z,99.90
2018-10-21T02:37:32.352Z,99.90
2018-10-21T02:39:59.771Z,99.90
2018-10-21T02:42:27.183Z,99.90
2018-10-21T02:44:54.634Z,99.90
2018-10-21T02:47:22.055Z,99.90
2018-10-21T02:49:49.455Z,99.90
2018-10-21T02:52:16.908Z,99.90
2018-10-21T02:54:44.427Z,99.90
2018-10-21T02:57:12.968Z,99.90
2018-10-21T02:59:40.323Z,99.90
2018-10-21T03:02:07.831Z,99.90
2018-10-21T03:04:35.247Z,99.90
2018-10-21T03:07:02.703Z,99.90
2018-10-21T03:09:30.508Z,99.90
2018-10-21T03:11:57.971Z,99.90
2018-10-21T03:14:25.430Z,99.90
2018-10-21T03:16:52.843Z,99.90
2018-10-21T03:19:20.256Z,99.90
2018-10-21T03:21:47.706Z,99.90
2018-10-21T03:24:15.139Z,99.90
2018-10-21T03:26:43.468Z,99.90
2018-10-21T03:29:10.863Z,99.90
2018-10-21T03:31:38.275Z,99.90
2018-10-21T03:34:05.854Z,99.90
2018-10-21T03:36:33.134Z,99.90
2018-10-21T03:39:00.574Z,99.90
2018-10-21T03:41:27.979Z,99.90
2018-10-21T03:43:55.407Z,99.90
2018-10-21T03:46:22.824Z,99.90
2018-10-21T03:48:50.231Z,99.90
2018-10-21T03:51:17.687Z,99.90
2018-10-21T03:53:45.091Z,99.90
2018-10-21T03:56:12.511Z,99.90
2018-10-21T03:58:39.923Z,99.90
2018-10-21T04:01:07.997Z,99.90
2018-10-21T04:03:35.478Z,99.90
2018-10-21T04:06:02.927Z,99.90
2018-10-21T04:08:30.331Z,99.90
2018-10-21T04:10:57.815Z,99.90
2018-10-21T04:13:25.258Z,99.90
2018-10-21T04:15:52.696Z,99.90
2018-10-21T04:18:20.115Z,99.90
2018-10-21T04:20:47.559Z,99.90
2018-10-21T04:23:14.955Z,99.90
2018-10-21T04:25:42.350Z,99.90
2018-10-21T04:28:10.215Z,99.90
2018-10-21T04:30:38.721Z,99.90
2018-10-21T04:33:11.923Z,99.90
2018-10-21T04:35:39.355Z,99.90
2018-10-21T04:38:26.267Z,99.90
2018-10-21T04:40:53.695Z,99.90
2018-10-21T04:43:21.149Z,99.90
2018-10-21T04:45:48.575Z,99.90
2018-10-21T04:48:16.027Z,99.90
2018-10-21T04:50:43.666Z,99.90
2018-10-21T04:53:11.075Z,99.90
2018-10-21T04:55:38.518Z,99.90
2018-10-21T04:58:06.063Z,99.90
2018-10-21T05:00:33.483Z,99.90
2018-10-21T05:03:00.867Z,99.90
2018-10-21T05:05:28.255Z,99.90
2018-10-21T05:07:55.686Z,99.90
2018-10-21T05:10:34.662Z,99.90
2018-10-21T05:13:02.655Z,99.90
2018-10-21T05:15:31.240Z,99.90
2018-10-21T05:17:58.683Z,99.90
2018-10-21T05:20:26.066Z,99.90
2018-10-21T05:22:53.596Z,99.90
2018-10-21T05:25:21.031Z,99.90
2018-10-21T05:27:48.423Z,99.90
2018-10-21T05:30:15.847Z,99.90
2018-10-21T05:32:47.144Z,99.90
2018-10-21T05:35:15.603Z,99.90
2018-10-21T05:37:43.103Z,99.90
2018-10-21T05:40:12.936Z,99.90
2018-10-21T05:42:40.383Z,99.90
2018-10-21T05:45:08.191Z,99.90
2018-10-21T05:47:36.054Z,99.90
2018-10-21T05:50:03.603Z,99.90
2018-10-21T05:52:31.026Z,99.90
2018-10-21T05:54:58.418Z,99.90
2018-10-21T05:57:25.831Z,99.90
2018-10-21T05:59:53.279Z,99.90
2018-10-21T06:02:20.695Z,99.90
2018-10-21T06:04:48.091Z,99.90
2018-10-21T06:07:15.515Z,99.90
2018-10-21T06:09:42.901Z,99.90
2018-10-21T06:12:10.322Z,99.90
2018-10-21T06:14:37.735Z,99.90
2018-10-21T06:17:12.966Z,99.90
2018-10-21T06:19:48.225Z,99.90
2018-10-21T06:22:15.719Z,99.90
2018-10-21T06:24:43.130Z,99.90
2018-10-21T06:27:10.543Z,99.90
2018-10-21T06:29:37.939Z,99.90
2018-10-21T06:32:05.422Z,99.90
2018-10-21T06:34:32.835Z,99.90
2018-10-21T06:37:00.431Z,99.90
2018-10-21T06:39:27.829Z,99.90
2018-10-21T06:41:55.264Z,99.90
2018-10-21T06:44:22.667Z,99.90
2018-10-21T06:46:50.111Z,99.90
2018-10-21T06:49:17.503Z,99.90
2018-10-21T06:51:44.912Z,99.90
2018-10-21T06:54:12.351Z,99.90
2018-10-21T06:56:39.940Z,99.90
2018-10-21T06:59:07.195Z,99.90
2018-10-21T07:01:34.998Z,99.90
2018-10-21T07:04:02.449Z,99.90
2018-10-21T07:06:30.031Z,99.90
2018-10-21T07:09:00.859Z,99.90
2018-10-21T07:11:28.271Z,99.90
2018-10-21T07:13:55.709Z,99.90
2018-10-21T07:16:26.474Z,99.90
2018-10-21T07:18:53.839Z,99.90
2018-10-21T07:21:21.263Z,99.90
2018-10-21T07:23:48.656Z,99.90
2018-10-21T07:26:16.074Z,99.90
2018-10-21T07:28:43.495Z,99.90
2018-10-21T07:31:10.884Z,99.90
2018-10-21T07:33:38.308Z,99.90
2018-10-21T07:36:05.737Z,99.90
2018-10-21T07:38:36.825Z,99.40
2018-10-21T07:41:04.479Z,85.10
2018-10-21T07:43:31.883Z,70.90
2018-10-21T07:45:59.395Z,62.80
2018-10-21T07:48:26.720Z,58.30
2018-10-21T07:50:54.151Z,56.00
2018-10-21T07:53:21.552Z,54.20
2018-10-21T07:55:49.053Z,53.60
2018-10-21T07:58:16.416Z,52.40
2018-10-21T08:00:43.833Z,51.50
2018-10-21T08:03:11.204Z,50.50
2018-10-21T08:05:50.195Z,50.60
2018-10-21T08:08:19.899Z,49.60
2018-10-21T08:10:47.311Z,49.80
2018-10-21T08:13:16.907Z,51.60
2018-10-21T08:15:44.666Z,54.00
2018-10-21T08:18:12.818Z,57.20
2018-10-21T08:20:41.179Z,57.40
2018-10-21T08:23:09.954Z,55.50
2018-10-21T08:25:37.708Z,55.60
2018-10-21T08:28:05.159Z,58.80
2018-10-21T08:30:32.581Z,61.30
2018-10-21T08:32:59.982Z,63.80
2018-10-21T08:35:27.389Z,62.00
2018-10-21T08:37:54.819Z,63.00
2018-10-21T08:40:25.298Z,62.00
2018-10-21T08:42:52.707Z,65.20
2018-10-21T08:45:20.118Z,69.50
2018-10-21T08:47:47.555Z,76.00
2018-10-21T08:50:14.963Z,81.00
2018-10-21T08:52:42.380Z,82.40
2018-10-21T08:55:10.636Z,82.70
2018-10-21T08:57:38.247Z,89.70
2018-10-21T09:00:12.754Z,92.30
2018-10-21T09:02:40.635Z,93.40
2018-10-21T09:05:09.803Z,95.10
2018-10-21T09:07:37.243Z,98.70
2018-10-21T09:10:05.725Z,99.90
2018-10-21T09:12:33.077Z,99.90
2018-10-21T09:15:00.543Z,99.90
2018-10-21T09:17:27.936Z,99.90
2018-10-21T09:19:55.391Z,99.90
2018-10-21T09:22:22.791Z,99.90
2018-10-21T09:24:50.191Z,99.90
2018-10-21T09:27:17.600Z,99.90
2018-10-21T09:29:45.015Z,99.90
2018-10-21T09:32:12.423Z,99.90
2018-10-21T09:34:39.831Z,99.90
2018-10-21T09:37:07.316Z,99.90
2018-10-21T09:39:34.670Z,99.90
2018-10-21T09:42:02.127Z,99.90
2018-10-21T09:44:29.514Z,99.70
2018-10-21T09:46:56.923Z,99.00
2018-10-21T09:49:24.347Z,99.90
2018-10-21T09:51:51.767Z,99.90
2018-10-21T09:54:20.231Z,99.90
2018-10-21T09:56:47.660Z,99.90
2018-10-21T09:59:15.084Z,99.90
2018-10-21T10:01:48.351Z,99.90
2018-10-21T10:04:15.837Z,99.90
2018-10-21T10:06:43.209Z,99.90
2018-10-21T10:09:12.108Z,99.90
2018-10-21T10:11:39.951Z,99.90
2018-10-21T10:14:07.343Z,99.90
2018-10-21T10:16:34.771Z,99.80
2018-10-21T10:19:02.300Z,98.90
2018-10-21T10:21:29.705Z,99.50
2018-10-21T10:23:57.186Z,99.10
2018-10-21T10:26:24.555Z,99.30
2018-10-21T10:28:51.958Z,99.50
2018-10-21T10:31:19.468Z,99.80
2018-10-21T10:33:50.251Z,99.30
2018-10-21T10:36:17.790Z,99.90
2018-10-21T10:38:45.119Z,99.20
2018-10-21T10:41:12.519Z,99.90
2018-10-21T10:43:39.923Z,99.90
2018-10-21T10:46:07.340Z,99.10
2018-10-21T10:48:34.754Z,98.90
2018-10-21T10:51:02.173Z,98.40
2018-10-21T10:53:29.607Z,98.10
2018-10-21T10:55:57.008Z,99.30
2018-10-21T10:58:24.433Z,98.20
2018-10-21T11:00:51.846Z,98.80
2018-10-21T11:03:19.261Z,98.90
2018-10-21T11:05:46.680Z,98.70
2018-10-21T11:08:17.218Z,99.40
2018-10-21T11:10:44.623Z,98.80
2018-10-21T11:13:12.092Z,98.40
2018-10-21T11:15:39.459Z,98.50
2018-10-21T11:18:06.872Z,97.80
2018-10-21T11:20:34.299Z,97.50
2018-10-21T11:23:01.707Z,97.40
2018-10-21T11:25:29.115Z,96.90
2018-10-21T11:27:56.526Z,97.50
2018-10-21T11:30:23.931Z,97.10
2018-10-21T11:32:55.163Z,97.70
2018-10-21T11:35:22.554Z,99.70
2018-10-21T11:37:49.948Z,98.60
2018-10-21T11:40:17.439Z,99.50
2018-10-21T11:42:44.807Z,96.80
2018-10-21T11:45:12.239Z,96.00
2018-10-21T11:47:39.654Z,95.10
2018-10-21T11:50:07.155Z,95.00
2018-10-21T11:52:34.660Z,96.80
2018-10-21T11:55:02.043Z,95.40
2018-10-21T11:57:29.399Z,94.70
2018-10-21T11:59:56.822Z,94.40
2018-10-21T12:02:24.243Z,94.40
2018-10-21T12:04:52.475Z,94.10
2018-10-21T12:07:19.875Z,92.90
2018-10-21T12:09:47.311Z,93.60
2018-10-21T12:12:14.695Z,92.80
2018-10-21T12:14:42.088Z,91.40
2018-10-21T12:17:09.511Z,91.70
2018-10-21T12:19:36.899Z,91.90
2018-10-21T12:22:04.673Z,93.10
2018-10-21T12:24:32.039Z,93.40
2018-10-21T12:26:59.428Z,94.00
2018-10-21T12:29:26.839Z,92.30
2018-10-21T12:31:54.255Z,93.30
2018-10-21T12:34:21.647Z,91.30
2018-10-21T12:36:49.059Z,91.10
2018-10-21T12:39:16.492Z,91.20
2018-10-21T12:41:43.883Z,91.50
2018-10-21T12:44:11.283Z,92.00
2018-10-21T12:46:39.350Z,92.40
2018-10-21T12:49:06.755Z,91.10
2018-10-21T12:51:34.355Z,90.80
2018-10-21T12:54:01.814Z,93.90
2018-10-21T12:56:29.233Z,93.70
2018-10-21T12:58:56.639Z,92.10
2018-10-21T13:01:24.068Z,92.00
2018-10-21T13:03:51.463Z,94.00
2018-10-21T13:06:18.883Z,92.20
2018-10-21T13:08:46.303Z,90.40
2018-10-21T13:11:13.679Z,90.20
2018-10-21T13:13:41.068Z,90.80
2018-10-21T13:16:08.573Z,90.30
2018-10-21T13:18:35.943Z,90.30
2018-10-21T13:21:03.435Z,90.60
2018-10-21T13:23:30.855Z,91.40
2018-10-21T13:25:58.247Z,90.00
2018-10-21T13:28:28.785Z,89.30
2018-10-21T13:30:56.542Z,90.40
2018-10-21T13:33:26.691Z,92.40
2018-10-21T13:35:54.405Z,93.20
2018-10-21T13:38:22.212Z,93.50
2018-10-21T13:40:49.970Z,92.70
2018-10-21T13:43:17.723Z,91.80
2018-10-21T13:45:45.556Z,91.50
2018-10-21T13:48:13.287Z,90.30
2018-10-21T13:50:41.056Z,90.40
2018-10-21T13:53:28.280Z,93.10
2018-10-21T13:55:56.032Z,92.80
2018-10-21T13:58:23.824Z,94.00
2018-10-21T14:00:51.667Z,94.60
2018-10-21T14:03:19.356Z,92.40
2018-10-21T14:05:47.076Z,92.60
2018-10-21T14:08:14.824Z,93.30
2018-10-21T14:10:42.523Z,91.70
2018-10-21T14:13:10.423Z,92.60
2018-10-21T14:15:38.252Z,91.00
2018-10-21T14:18:05.983Z,90.70
2018-10-21T14:20:33.692Z,92.10
2018-10-21T14:23:01.484Z,91.80
2018-10-21T14:25:29.248Z,94.00
2018-10-21T14:27:56.982Z,92.10
2018-10-21T14:30:24.857Z,91.70
2018-10-21T14:32:52.472Z,90.80
2018-10-21T14:35:20.129Z,90.50
2018-10-21T14:37:47.830Z,92.60
2018-10-21T14:40:16.507Z,92.30
2018-10-21T14:42:45.179Z,93.20
2018-10-21T14:45:13.025Z,93.80
2018-10-21T14:47:40.863Z,92.70
2018-10-21T14:50:09.522Z,92.90
2018-10-21T14:52:37.223Z,92.30
2018-10-21T14:55:05.802Z,93.70
2018-10-21T14:57:33.560Z,93.10
2018-10-21T15:00:01.299Z,93.60
2018-10-21T15:02:28.981Z,96.00
2018-10-21T15:04:56.672Z,91.30
2018-10-21T15:07:24.376Z,94.50
2018-10-21T15:09:52.132Z,95.40
2018-10-21T15:12:19.840Z,95.20
2018-10-21T15:23:51.011Z,99.90
2018-10-21T15:26:18.481Z,99.90
2018-10-21T15:28:45.851Z,99.90
2018-10-21T15:31:13.284Z,99.90
2018-10-21T15:33:40.716Z,99.90
2018-10-21T15:36:08.144Z,99.90
2018-10-21T15:38:35.584Z,99.90
2018-10-21T15:41:03.087Z,99.90
2018-10-21T15:43:30.540Z,99.90
2018-10-21T15:45:58.018Z,99.90
2018-10-21T15:48:25.420Z,99.90
2018-10-21T15:50:52.847Z,99.90
2018-10-21T15:53:20.295Z,99.90
2018-10-21T15:55:47.715Z,99.90
2018-10-21T15:58:15.185Z,99.90
2018-10-21T16:00:42.587Z,99.90
2018-10-21T16:03:13.579Z,99.90
2018-10-21T16:05:41.048Z,99.90
2018-10-21T16:08:11.637Z,99.90
2018-10-21T16:10:39.079Z,99.90
2018-10-21T16:13:07.467Z,99.90
2018-10-21T16:15:34.941Z,99.90
2018-10-21T16:18:02.447Z,99.90
2018-10-21T16:20:30.640Z,99.90
2018-10-21T16:22:58.078Z,99.90
2018-10-21T16:25:25.615Z,99.90
2018-10-21T16:27:53.004Z,99.90
2018-10-21T16:30:20.431Z,99.90
2018-10-21T16:32:48.122Z,99.90
2018-10-21T16:35:15.435Z,99.90
2018-10-21T16:37:42.868Z,99.90
2018-10-21T16:40:12.363Z,99.90
2018-10-21T16:42:39.838Z,99.90
2018-10-21T16:45:07.768Z,99.90
2018-10-21T16:47:39.317Z,99.90
2018-10-21T16:50:12.811Z,99.90
2018-10-21T16:52:40.905Z,99.90
2018-10-21T16:55:09.285Z,99.90
2018-10-21T16:57:36.949Z,99.90
2018-10-21T17:00:06.691Z,99.90
2018-10-21T17:02:34.047Z,99.90
2018-10-21T17:05:01.525Z,99.90
2018-10-21T17:07:33.399Z,99.90
2018-10-21T17:10:01.214Z,99.90
2018-10-21T17:12:28.417Z,99.90
2018-10-21T17:14:55.924Z,99.90
2018-10-21T17:17:23.409Z,99.90
2018-10-21T17:19:50.861Z,99.90
2018-10-21T17:22:22.243Z,99.90
2018-10-21T17:24:49.793Z,99.90
2018-10-21T17:27:17.400Z,99.90
2018-10-21T17:29:44.883Z,99.90
2018-10-21T17:32:12.329Z,99.90
2018-10-21T17:34:39.819Z,99.90
2018-10-21T17:37:07.345Z,99.90
2018-10-21T17:39:35.028Z,99.90
2018-10-21T17:42:02.863Z,99.90
2018-10-21T17:44:31.600Z,99.90
2018-10-21T17:47:03.489Z,99.90
2018-10-21T17:49:31.940Z,99.90
2018-10-21T17:52:04.687Z,99.90
2018-10-21T17:54:33.135Z,99.90
2018-10-21T17:57:02.364Z,99.90
2018-10-21T17:59:35.251Z,99.90
2018-10-21T18:02:05.099Z,99.90
2018-10-21T18:04:33.487Z,99.90
2018-10-21T18:07:02.884Z,99.90
2018-10-21T18:09:32.592Z,99.90
2018-10-21T18:12:02.298Z,99.90
2018-10-21T18:14:32.244Z,99.90
2018-10-21T18:17:02.200Z,99.90
2018-10-21T18:19:32.091Z,99.90
2018-10-21T18:22:06.369Z,99.90
2018-10-21T18:24:37.412Z,99.90
2018-10-21T18:27:11.645Z,99.90
2018-10-21T18:29:43.013Z,99.90
2018-10-21T18:32:13.297Z,99.90
2018-10-21T18:34:44.177Z,99.90
2018-10-21T18:37:17.721Z,99.90
2018-10-21T18:39:48.939Z,99.90
2018-10-21T18:42:18.971Z,99.90
2018-10-21T18:44:48.972Z,99.90
2018-10-21T18:47:18.960Z,99.90
2018-10-21T18:49:49.636Z,99.90
2018-10-21T18:52:19.758Z,99.90
2018-10-21T18:54:49.769Z,99.90
2018-10-21T18:57:19.836Z,99.90
2018-10-21T18:59:50.461Z,99.90
2018-10-21T19:02:20.421Z,99.90
2018-10-21T19:04:50.487Z,99.90
2018-10-21T19:07:20.542Z,99.90
2018-10-21T19:09:51.057Z,99.90
2018-10-21T19:12:21.970Z,99.90
2018-10-21T19:14:52.029Z,99.90
2018-10-21T19:17:23.053Z,99.90
2018-10-21T19:19:53.053Z,99.90
2018-10-21T19:22:23.084Z,99.90
2018-10-21T19:24:53.890Z,99.90
2018-10-21T19:27:24.388Z,99.90
2018-10-21T19:29:54.429Z,99.90
2018-10-21T19:32:24.447Z,99.90
2018-10-21T19:34:54.493Z,99.90
2018-10-21T19:37:24.527Z,99.90
2018-10-21T19:39:54.664Z,99.90
2018-10-21T19:42:24.597Z,99.90
2018-10-21T19:44:54.655Z,99.90
2018-10-21T19:47:24.710Z,99.90
2018-10-21T19:49:54.894Z,99.90
2018-10-21T19:52:24.959Z,99.90
2018-10-21T19:54:55.201Z,99.90
2018-10-21T19:57:25.207Z,99.90
2018-10-21T19:59:56.046Z,99.90
2018-10-21T20:02:26.089Z,99.90
2018-10-21T20:04:56.078Z,99.90
2018-10-21T20:07:26.366Z,99.90
2018-10-21T20:09:56.397Z,99.90
2018-10-21T20:12:26.361Z,99.90
2018-10-21T20:14:56.352Z,99.90
2018-10-21T20:17:26.275Z,99.90
2018-10-21T20:19:56.127Z,99.90
2018-10-21T20:22:25.934Z,99.90
2018-10-21T20:24:55.980Z,99.90
2018-10-21T20:27:25.978Z,99.90
2018-10-21T20:29:55.986Z,99.90
2018-10-21T20:32:26.378Z,99.90
2018-10-21T20:34:56.393Z,99.90
2018-10-21T20:37:27.399Z,99.90
2018-10-21T20:39:58.311Z,99.90
2018-10-21T20:42:26.625Z,99.90
2018-10-21T20:44:54.517Z,99.90
2018-10-21T20:47:22.394Z,99.90
2018-10-21T20:49:50.346Z,99.90
2018-10-21T20:52:18.373Z,99.90
2018-10-21T20:54:48.816Z,99.90
2018-10-21T20:57:16.617Z,99.90
2018-10-21T20:59:45.644Z,99.90
2018-10-21T21:02:14.176Z,99.90
2018-10-21T21:04:41.935Z,99.90
2018-10-21T21:07:10.129Z,99.90
2018-10-21T21:09:38.762Z,99.90
2018-10-21T21:12:06.525Z,99.90
2018-10-21T21:14:34.365Z,99.90
2018-10-21T21:17:02.805Z,99.90
2018-10-21T21:19:30.600Z,99.90
2018-10-21T21:21:58.282Z,99.90
2018-10-21T21:24:26.196Z,99.90
2018-10-21T21:26:54.036Z,99.90
2018-10-21T21:29:21.768Z,99.90
2018-10-21T21:31:49.593Z,99.90
2018-10-21T21:34:17.879Z,99.90
2018-10-21T21:36:45.672Z,99.90
2018-10-21T21:39:14.630Z,99.90
2018-10-21T21:41:43.764Z,99.90
2018-10-21T21:44:11.599Z,99.90
2018-10-21T21:46:40.105Z,99.90
2018-10-21T21:49:09.519Z,99.90
2018-10-21T21:51:37.577Z,99.90
2018-10-21T21:54:06.369Z,99.90
2018-10-21T21:56:38.159Z,99.90
2018-10-21T21:59:07.996Z,99.90
2018-10-21T22:01:35.992Z,99.90
2018-10-21T22:04:03.798Z,99.90
2018-10-21T22:06:31.920Z,99.90
2018-10-21T22:09:00.590Z,99.90
2018-10-21T22:11:28.431Z,99.90
2018-10-21T22:13:57.034Z,99.90
2018-10-21T22:16:28.556Z,99.90
2018-10-21T22:18:56.372Z,99.90
2018-10-21T22:21:24.117Z,99.90
2018-10-21T22:23:51.867Z,99.90
2018-10-21T22:26:19.644Z,99.90
2018-10-21T22:28:47.379Z,99.90
2018-10-21T22:31:15.133Z,99.90
2018-10-21T22:33:46.453Z,99.90
2018-10-21T22:36:14.224Z,99.90
2018-10-21T22:38:41.948Z,99.90
2018-10-21T22:41:09.603Z,99.90
2018-10-21T22:43:37.359Z,99.90
2018-10-21T22:46:05.350Z,99.90
2018-10-21T22:48:33.014Z,99.90
2018-10-21T22:51:00.756Z,99.90
2018-10-21T22:53:28.547Z,99.90
2018-10-21T22:55:56.268Z,99.90
2018-10-21T22:58:24.029Z,99.90
2018-10-21T23:00:51.824Z,99.90
2018-10-21T23:03:19.620Z,99.90
2018-10-21T23:05:47.384Z,99.90
2018-10-21T23:08:15.164Z,99.90
2018-10-21T23:10:42.880Z,99.90
2018-10-21T23:13:10.593Z,99.90
2018-10-21T23:15:38.292Z,99.90
2018-10-21T23:18:06.111Z,99.90
2018-10-21T23:20:33.763Z,99.90
2018-10-21T23:23:01.465Z,99.90
2018-10-21T23:25:29.296Z,99.90
2018-10-21T23:27:57.055Z,99.90
2018-10-21T23:30:24.799Z,99.90
2018-10-21T23:32:52.500Z,99.90
2018-10-21T23:35:20.316Z,99.90
2018-10-21T23:37:48.077Z,99.90
2018-10-21T23:40:15.869Z,99.90
2018-10-21T23:42:43.605Z,99.90
2018-10-21T23:45:11.301Z,99.90
2018-10-21T23:47:39.000Z,99.90
2018-10-21T23:50:07.263Z,99.90
2018-10-21T23:52:35.015Z,99.90
2018-10-21T23:55:02.758Z,99.90
2018-10-21T23:57:30.479Z,99.90
2018-10-21T23:59:58.224Z,99.90
